Time;durP1;ratioP1;P1;durP2;ratioP2;P2;SDS_P1;SDS_P2;PMS_P1;PMS_P2;Temp;Humidity;BMP_temperature;BMP_pressure;BME280_temperature;BME280_humidity;BME280_pressure;Samples;Min_cycle;Max_cycle;Signal;HPM_P1;HPM_P2
2023/12/11 00:00:32;;;;;;;4.63;1.88;;;12.20;79.60;;;;;;4994437;28;20069;-75
2023/12/11 00:02:58;;;;;;;3.88;2.00;;;12.20;79.60;;;;;;4976735;28;20129;-75
2023/12/11 00:05:24;;;;;;;4.25;1.70;;;12.20;79.60;;;;;;4992931;28;20030;-76
2023/12/11 00:07:50;;;;;;;6.13;2.25;;;12.20;79.60;;;;;;4992834;28;20077;-75
2023/12/11 00:10:16;;;;;;;6.57;2.20;;;12.20;80.30;;;;;;4976534;28;20113;-75
2023/12/11 00:12:41;;;;;;;5.45;2.00;;;12.20;79.60;;;;;;4992762;28;20045;-75
2023/12/11 00:15:10;;;;;;;4.07;1.80;;;12.20;79.70;;;;;;4992586;28;20117;-75
2023/12/11 00:17:36;;;;;;;7.03;2.30;;;12.20;79.70;;;;;;4994003;28;20074;-75
2023/12/11 00:20:02;;;;;;;5.40;2.30;;;12.20;79.70;;;;;;4992706;28;20046;-74
2023/12/11 00:22:28;;;;;;;3.60;1.90;;;12.20;79.70;;;;;;4993926;28;20494;-75
2023/12/11 00:24:54;;;;;;;4.50;2.08;;;12.20;79.70;;;;;;4976412;28;20463;-74
2023/12/11 00:27:19;;;;;;;5.70;2.00;;;12.20;79.70;;;;;;4992885;28;20035;-75
2023/12/11 00:29:45;;;;;;;6.18;2.17;;;12.10;79.70;;;;;;4992341;28;20045;-74
2023/12/11 00:32:11;;;;;;;5.10;1.80;;;12.20;79.70;;;;;;4977102;28;20046;-75
2023/12/11 00:34:37;;;;;;;5.13;1.75;;;12.20;79.70;;;;;;4976938;28;20034;-75
2023/12/11 00:37:03;;;;;;;4.32;1.70;;;12.20;79.70;;;;;;4992984;28;20038;-75
2023/12/11 00:39:28;;;;;;;4.18;1.98;;;12.10;79.70;;;;;;4976343;28;20499;-74
2023/12/11 00:41:54;;;;;;;6.57;2.35;;;12.10;79.70;;;;;;4976098;28;20030;-74
2023/12/11 00:44:20;;;;;;;4.97;2.30;;;12.20;79.80;;;;;;4992792;28;20058;-74
2023/12/11 00:46:46;;;;;;;6.00;2.58;;;12.10;79.70;;;;;;4992496;28;20030;-75
2023/12/11 00:49:11;;;;;;;6.07;2.35;;;12.10;79.70;;;;;;4993387;28;20027;-74
2023/12/11 00:51:37;;;;;;;4.40;1.85;;;12.10;79.70;;;;;;4993096;28;20040;-75
2023/12/11 00:54:03;;;;;;;5.65;1.88;;;12.10;79.70;;;;;;4976765;28;20030;-74
2023/12/11 00:56:29;;;;;;;5.68;2.00;;;12.10;79.70;;;;;;4992056;28;20034;-75
2023/12/11 00:58:54;;;;;;;5.13;2.08;;;12.10;79.70;;;;;;4976549;28;20027;-75
2023/12/11 01:01:20;;;;;;;4.25;1.90;;;12.10;79.80;;;;;;4992006;28;20057;-74
2023/12/11 01:03:46;;;;;;;5.25;1.80;;;12.10;79.80;;;;;;4976020;28;20126;-75
2023/12/11 01:06:12;;;;;;;4.90;1.90;;;12.10;79.80;;;;;;4992332;28;20038;-73
2023/12/11 01:08:39;;;;;;;7.15;2.20;;;12.10;79.80;;;;;;4976422;28;20460;-74
2023/12/11 01:11:05;;;;;;;6.80;2.00;;;12.10;79.80;;;;;;4980558;28;20031;-75
2023/12/11 01:13:31;;;;;;;5.68;1.90;;;12.10;79.80;;;;;;4996595;28;20030;-75
2023/12/11 01:15:58;;;;;;;6.40;2.55;;;12.00;79.80;;;;;;4980113;28;20023;-75
2023/12/11 01:18:24;;;;;;;5.18;2.00;;;12.00;79.80;;;;;;4979742;28;20034;-75
2023/12/11 01:20:51;;;;;;;4.93;2.05;;;12.00;79.80;;;;;;4980675;28;20030;-74
2023/12/11 01:23:17;;;;;;;4.85;2.10;;;12.10;79.80;;;;;;4979668;28;20039;-75
2023/12/11 01:25:43;;;;;;;5.57;2.00;;;12.00;79.80;;;;;;4995847;28;20101;-73
2023/12/11 01:28:09;;;;;;;4.72;1.92;;;12.00;79.80;;;;;;4979509;28;20132;-74
2023/12/11 01:30:35;;;;;;;5.22;1.75;;;12.00;79.80;;;;;;4995670;28;20042;-74
2023/12/11 01:33:03;;;;;;;5.53;1.88;;;12.00;79.80;;;;;;4995787;28;20081;-73
2023/12/11 01:35:29;;;;;;;5.18;2.13;;;12.00;79.80;;;;;;4995902;28;20092;-74
2023/12/11 01:37:55;;;;;;;3.63;1.63;;;12.00;79.80;;;;;;4995863;28;20043;-74
2023/12/11 01:40:21;;;;;;;5.75;1.90;;;12.00;79.80;;;;;;4995747;28;20077;-74
2023/12/11 01:42:46;;;;;;;6.78;2.10;;;12.00;79.80;;;;;;4980003;28;20395;-75
2023/12/11 01:45:13;;;;;;;5.43;2.00;;;12.00;79.80;;;;;;4979635;28;20039;-75
2023/12/11 01:47:39;;;;;;;4.80;2.10;;;12.00;79.80;;;;;;4979532;28;20048;-74
2023/12/11 01:50:08;;;;;;;4.35;1.70;;;12.00;79.80;;;;;;4995169;28;20134;-74
2023/12/11 01:52:34;;;;;;;5.75;2.00;;;12.00;79.80;;;;;;4979198;28;20031;-75
2023/12/11 01:55:01;;;;;;;6.00;1.80;;;12.00;79.80;;;;;;4978881;28;20479;-75
2023/12/11 01:57:28;;;;;;;5.40;1.60;;;12.00;79.80;;;;;;4995316;28;20026;-74
2023/12/11 01:59:53;;;;;;;6.35;2.13;;;12.00;79.80;;;;;;4978673;28;20031;-75
2023/12/11 02:02:20;;;;;;;4.60;1.90;;;12.00;79.80;;;;;;4978684;28;20053;-75
2023/12/11 02:04:46;;;;;;;4.68;1.83;;;12.00;79.80;;;;;;4995211;28;20042;-74
2023/12/11 02:07:12;;;;;;;4.97;2.13;;;12.00;79.80;;;;;;4962868;28;20034;-75
2023/12/11 02:09:38;;;;;;;5.30;2.22;;;12.00;79.80;;;;;;4995819;28;20116;-74
2023/12/11 02:12:05;;;;;;;7.10;2.70;;;12.00;79.80;;;;;;4994668;28;20041;-75
2023/12/11 02:14:31;;;;;;;5.55;2.00;;;12.00;79.80;;;;;;4995504;28;20062;-75
2023/12/11 02:16:57;;;;;;;6.18;2.10;;;12.00;79.80;;;;;;4995128;28;20034;-74
2023/12/11 02:19:23;;;;;;;5.70;2.30;;;11.90;79.70;;;;;;4994814;28;20038;-75
2023/12/11 02:21:49;;;;;;;3.53;1.77;;;11.90;79.70;;;;;;4977370;28;20022;-75
2023/12/11 02:24:26;;;;;;;5.85;2.00;;;11.90;79.70;;;;;;4994807;28;20414;-73
2023/12/11 02:26:52;;;;;;;5.97;1.95;;;12.00;79.80;;;;;;4994627;28;20041;-75
2023/12/11 02:29:17;;;;;;;6.03;1.98;;;12.00;79.70;;;;;;4978589;28;20034;-75
2023/12/11 02:31:43;;;;;;;5.30;1.83;;;11.90;79.70;;;;;;4978506;28;20035;-75
2023/12/11 02:34:09;;;;;;;7.53;2.15;;;11.90;79.70;;;;;;4994646;28;20077;-74
2023/12/11 02:36:35;;;;;;;6.30;1.73;;;11.90;79.70;;;;;;4978200;28;20041;-75
2023/12/11 02:39:01;;;;;;;6.13;1.90;;;11.90;79.70;;;;;;4978966;28;20367;-74
2023/12/11 02:41:26;;;;;;;4.95;2.05;;;11.90;79.70;;;;;;4978523;28;20389;-74
2023/12/11 02:43:52;;;;;;;6.28;1.90;;;12.00;79.80;;;;;;4995510;28;20096;-74
2023/12/11 02:46:18;;;;;;;6.55;2.33;;;11.90;79.70;;;;;;4978361;28;20026;-74
2023/12/11 02:48:44;;;;;;;6.57;1.90;;;11.90;79.70;;;;;;4994233;28;20109;-74
2023/12/11 02:51:09;;;;;;;4.63;1.98;;;11.90;79.70;;;;;;4994017;28;20030;-74
2023/12/11 02:53:35;;;;;;;6.78;1.98;;;12.00;79.70;;;;;;4993996;28;20121;-75
2023/12/11 02:56:01;;;;;;;4.28;1.92;;;11.90;79.70;;;;;;4994520;28;20034;-75
2023/12/11 02:58:27;;;;;;;4.93;1.70;;;12.00;79.70;;;;;;4977767;28;20041;-74
2023/12/11 03:00:52;;;;;;;5.28;2.13;;;12.00;79.70;;;;;;4977713;28;20086;-74
2023/12/11 03:03:18;;;;;;;6.25;2.20;;;12.00;79.70;;;;;;4977600;28;20038;-74
2023/12/11 03:05:44;;;;;;;7.20;2.45;;;12.00;79.70;;;;;;4994079;28;20490;-74
2023/12/11 03:08:09;;;;;;;5.55;2.00;;;12.00;79.70;;;;;;4993683;28;20442;-75
2023/12/11 03:10:35;;;;;;;5.30;2.15;;;12.00;79.70;;;;;;4994191;28;20463;-75
2023/12/11 03:13:01;;;;;;;6.50;2.33;;;12.00;79.60;;;;;;4978159;28;20034;-74
2023/12/11 03:15:27;;;;;;;5.90;2.28;;;12.00;79.70;;;;;;4977460;28;20037;-74
2023/12/11 03:17:52;;;;;;;5.03;2.08;;;12.00;79.60;;;;;;4977817;28;20039;-74
2023/12/11 03:20:18;;;;;;;4.45;1.70;;;12.00;79.60;;;;;;4977732;28;20062;-74
2023/12/11 03:22:44;;;;;;;4.35;1.83;;;12.00;79.60;;;;;;4977660;28;20045;-74
2023/12/11 03:25:10;;;;;;;5.07;2.55;;;12.00;79.60;;;;;;4977485;28;20027;-74
2023/12/11 03:27:36;;;;;;;6.47;2.03;;;12.00;79.70;;;;;;4993530;28;20064;-75
2023/12/11 03:30:02;;;;;;;4.97;1.63;;;12.00;79.60;;;;;;4994238;28;20080;-74
2023/12/11 03:32:27;;;;;;;5.25;1.90;;;12.00;79.60;;;;;;4993128;28;20108;-74
2023/12/11 03:34:53;;;;;;;4.65;1.90;;;12.00;79.60;;;;;;4993584;28;20038;-74
2023/12/11 03:37:20;;;;;;;5.72;1.80;;;12.00;79.60;;;;;;4994969;28;20030;-73
2023/12/11 03:39:46;;;;;;;5.40;1.70;;;12.00;79.60;;;;;;4993137;28;20034;-74
2023/12/11 03:42:11;;;;;;;4.53;1.75;;;12.00;79.70;;;;;;4993565;28;20562;-73
2023/12/11 03:44:37;;;;;;;8.43;2.60;;;12.00;79.60;;;;;;4977348;28;20538;-75
2023/12/11 03:47:03;;;;;;;4.85;1.90;;;12.00;79.60;;;;;;4993666;28;20041;-75
2023/12/11 03:49:29;;;;;;;5.43;1.83;;;12.00;79.60;;;;;;4977978;28;20030;-74
2023/12/11 03:51:54;;;;;;;2.95;1.67;;;12.00;79.60;;;;;;4994102;28;20585;-74
2023/12/11 03:54:21;;;;;;;4.45;1.88;;;12.00;79.60;;;;;;4977160;28;20041;-74
2023/12/11 03:56:46;;;;;;;4.55;2.03;;;12.00;79.70;;;;;;4993929;28;20038;-74
2023/12/11 03:59:13;;;;;;;4.38;2.22;;;12.10;79.70;;;;;;4993259;28;20438;-75
2023/12/11 04:01:39;;;;;;;6.15;1.92;;;12.00;79.70;;;;;;4976248;28;20054;-75
2023/12/11 04:04:05;;;;;;;6.88;2.63;;;12.00;79.70;;;;;;4992951;28;20042;-74
2023/12/11 04:06:31;;;;;;;6.70;2.38;;;12.00;79.70;;;;;;4993432;28;20030;-75
2023/12/11 04:08:57;;;;;;;3.63;1.67;;;12.00;79.70;;;;;;4976696;28;20034;-74
2023/12/11 04:11:23;;;;;;;4.10;1.75;;;12.00;79.70;;;;;;4992877;28;20030;-74
2023/12/11 04:13:48;;;;;;;3.50;1.63;;;12.10;79.70;;;;;;4992582;28;20479;-74
2023/12/11 04:16:14;;;;;;;6.65;1.80;;;12.00;79.70;;;;;;4976895;28;20030;-76
2023/12/11 04:18:41;;;;;;;6.90;1.90;;;12.00;79.70;;;;;;4977137;28;20460;-74
2023/12/11 04:21:07;;;;;;;4.20;2.17;;;12.00;79.70;;;;;;4992499;28;20498;-74
2023/12/11 04:23:33;;;;;;;4.97;1.45;;;12.00;79.70;;;;;;4992621;28;20137;-74
2023/12/11 04:25:59;;;;;;;3.45;1.48;;;12.00;79.70;;;;;;4976965;28;20054;-74
2023/12/11 04:28:26;;;;;;;4.00;1.90;;;12.10;79.80;;;;;;4994112;28;20026;-74
2023/12/11 04:30:52;;;;;;;3.80;1.60;;;12.00;80.30;;;;;;4976703;28;20030;-73
2023/12/11 04:33:18;;;;;;;3.33;1.48;;;12.00;79.70;;;;;;4992908;28;20097;-73
2023/12/11 04:35:44;;;;;;;5.50;1.92;;;12.00;79.70;;;;;;4992310;28;20026;-73
2023/12/11 04:38:10;;;;;;;4.63;1.80;;;12.00;79.70;;;;;;4994042;28;20451;-74
2023/12/11 04:40:36;;;;;;;4.75;2.05;;;12.00;79.70;;;;;;4993515;28;20069;-74
2023/12/11 04:43:02;;;;;;;4.15;1.70;;;12.00;79.70;;;;;;4976361;28;20133;-75
2023/12/11 04:45:28;;;;;;;3.45;1.60;;;12.00;79.70;;;;;;4979700;28;20054;-72
2023/12/11 04:47:54;;;;;;;4.25;1.88;;;12.00;80.40;;;;;;4980313;28;20093;-75
2023/12/11 04:50:19;;;;;;;5.03;1.70;;;12.10;79.70;;;;;;4980222;28;20039;-73
2023/12/11 04:52:45;;;;;;;6.65;1.83;;;12.10;79.80;;;;;;4980343;28;20045;-74
2023/12/11 04:55:11;;;;;;;3.53;1.80;;;12.00;79.70;;;;;;4996628;28;20126;-74
2023/12/11 04:57:37;;;;;;;3.28;1.45;;;12.10;79.80;;;;;;4996330;28;20037;-74
2023/12/11 05:00:04;;;;;;;5.07;1.70;;;12.00;79.80;;;;;;4980070;28;20064;-74
2023/12/11 05:02:30;;;;;;;5.03;1.88;;;12.00;80.40;;;;;;4996536;28;20034;-74
2023/12/11 05:04:56;;;;;;;2.83;1.60;;;12.00;79.80;;;;;;4980274;28;20108;-74
2023/12/11 05:07:22;;;;;;;4.45;1.77;;;12.00;79.80;;;;;;4979961;28;20030;-74
2023/12/11 05:09:48;;;;;;;4.00;1.80;;;12.00;79.70;;;;;;4979937;28;20490;-74
2023/12/11 05:12:14;;;;;;;7.32;2.03;;;12.00;79.80;;;;;;4963851;28;20035;-74
2023/12/11 05:14:39;;;;;;;4.05;1.60;;;12.00;79.70;;;;;;4963837;28;20037;-74
2023/12/11 05:17:05;;;;;;;4.40;1.70;;;12.00;79.70;;;;;;4980498;28;20039;-74
2023/12/11 05:19:31;;;;;;;6.25;1.92;;;12.00;79.70;;;;;;4996385;28;20113;-74
2023/12/11 05:22:00;;;;;;;3.40;1.60;;;12.00;79.70;;;;;;4995651;28;20049;-74
2023/12/11 05:24:26;;;;;;;4.47;1.77;;;12.10;79.80;;;;;;4996208;28;20042;-74
2023/12/11 05:26:54;;;;;;;5.82;2.00;;;12.10;79.80;;;;;;4996163;28;20033;-73
2023/12/11 05:29:20;;;;;;;5.80;1.92;;;12.10;79.80;;;;;;4979663;28;20102;-74
2023/12/11 05:31:45;;;;;;;6.55;2.17;;;12.10;79.80;;;;;;4980086;28;20030;-74
2023/12/11 05:34:11;;;;;;;4.32;1.88;;;12.10;79.80;;;;;;4979346;28;20165;-74
2023/12/11 05:36:37;;;;;;;4.13;1.80;;;12.10;79.80;;;;;;4995960;28;20410;-74
2023/12/11 05:39:03;;;;;;;5.20;1.85;;;12.10;79.80;;;;;;4979675;28;20034;-74
2023/12/11 05:41:28;;;;;;;3.95;2.03;;;12.10;79.80;;;;;;4980230;28;20030;-74
2023/12/11 05:43:57;;;;;;;4.47;1.75;;;12.10;79.80;;;;;;4978962;28;20486;-74
2023/12/11 05:46:23;;;;;;;4.57;1.92;;;12.10;79.80;;;;;;4995939;28;20109;-74
2023/12/11 05:48:49;;;;;;;3.83;1.67;;;12.10;79.80;;;;;;4979418;28;20100;-74
2023/12/11 05:51:15;;;;;;;5.32;1.85;;;12.10;79.80;;;;;;4995638;28;20030;-74
2023/12/11 05:53:41;;;;;;;7.07;2.15;;;12.10;79.80;;;;;;4979405;28;20034;-74
2023/12/11 05:56:07;;;;;;;4.82;1.85;;;12.10;79.80;;;;;;4995050;28;20034;-74
2023/12/11 05:58:33;;;;;;;4.38;2.08;;;12.10;79.80;;;;;;4997285;28;20023;-74
2023/12/11 06:00:59;;;;;;;6.40;2.28;;;12.10;79.80;;;;;;4995114;28;20050;-75
2023/12/11 06:03:25;;;;;;;5.00;1.90;;;12.10;80.50;;;;;;4979055;28;20042;-74
2023/12/11 06:05:57;;;;;;;8.38;2.67;;;12.10;79.80;;;;;;4979267;28;20042;-74
2023/12/11 06:08:24;;;;;;;7.72;2.13;;;12.10;79.80;;;;;;4994984;28;20045;-74
2023/12/11 06:10:50;;;;;;;6.88;2.30;;;12.10;79.80;;;;;;4979055;28;20034;-74
2023/12/11 06:13:16;;;;;;;5.95;1.98;;;12.10;79.80;;;;;;4995050;28;20482;-74
2023/12/11 06:15:42;;;;;;;2.58;1.42;;;12.10;79.80;;;;;;4994774;28;20042;-74
2023/12/11 06:18:08;;;;;;;7.10;1.95;;;12.10;79.80;;;;;;4978481;28;20031;-74
2023/12/11 06:20:34;;;;;;;8.27;2.28;;;12.10;79.80;;;;;;4978863;28;20035;-74
2023/12/11 06:23:00;;;;;;;4.85;1.80;;;12.10;79.80;;;;;;4978522;28;20085;-73
2023/12/11 06:25:25;;;;;;;5.15;1.80;;;12.10;79.80;;;;;;4978608;28;20459;-74
2023/12/11 06:27:51;;;;;;;5.38;1.70;;;12.10;79.80;;;;;;4979222;28;20517;-74
2023/12/11 06:30:17;;;;;;;4.35;1.80;;;12.10;79.90;;;;;;4994699;28;20482;-73
2023/12/11 06:32:43;;;;;;;4.72;1.77;;;12.10;79.80;;;;;;4994458;28;20041;-74
2023/12/11 06:35:09;;;;;;;6.50;1.80;;;12.10;79.80;;;;;;4978494;28;20109;-74
2023/12/11 06:37:34;;;;;;;5.25;2.03;;;12.10;79.90;;;;;;4979214;28;20442;-73
2023/12/11 06:40:00;;;;;;;5.10;1.73;;;12.10;79.80;;;;;;4978228;28;20038;-73
2023/12/11 06:42:26;;;;;;;3.70;1.70;;;12.10;79.80;;;;;;4995662;28;20133;-73
2023/12/11 06:44:53;;;;;;;5.00;2.30;;;12.10;79.80;;;;;;4994286;28;20034;-73
2023/12/11 06:47:19;;;;;;;4.93;1.77;;;12.10;79.90;;;;;;4978116;28;20130;-73
2023/12/11 06:49:46;;;;;;;4.13;1.55;;;12.10;79.80;;;;;;4994302;28;20125;-75
2023/12/11 06:52:13;;;;;;;5.35;1.83;;;12.10;79.90;;;;;;4994282;28;20093;-75
2023/12/11 06:54:39;;;;;;;2.45;1.50;;;12.10;79.90;;;;;;4977968;28;20117;-74
2023/12/11 06:57:04;;;;;;;5.57;1.80;;;12.10;79.80;;;;;;4977972;28;20062;-74
2023/12/11 06:59:30;;;;;;;3.67;1.63;;;12.10;79.90;;;;;;4995590;28;20085;-73
2023/12/11 07:01:56;;;;;;;5.30;1.80;;;12.10;79.80;;;;;;4977463;28;20085;-73
2023/12/11 07:04:22;;;;;;;5.53;2.03;;;12.10;79.80;;;;;;5010139;28;20038;-77
2023/12/11 07:06:47;;;;;;;3.75;1.67;;;12.10;79.80;;;;;;4976957;28;20040;-75
2023/12/11 07:09:13;;;;;;;4.70;1.70;;;12.10;79.80;;;;;;4995296;28;20031;-74
2023/12/11 07:11:39;;;;;;;5.05;1.88;;;12.10;79.80;;;;;;4994850;28;20026;-73
2023/12/11 07:14:06;;;;;;;5.65;1.80;;;12.10;79.80;;;;;;4994185;28;20035;-74
2023/12/11 07:16:35;;;;;;;5.18;2.00;;;12.10;79.90;;;;;;4994032;28;20026;-74
2023/12/11 07:19:03;;;;;;;3.78;1.30;;;12.10;79.90;;;;;;4977873;28;20061;-73
2023/12/11 07:21:29;;;;;;;3.65;1.58;;;12.10;79.90;;;;;;4977574;28;20048;-76
2023/12/11 07:23:55;;;;;;;4.38;1.60;;;12.10;79.80;;;;;;4994836;28;20041;-73
2023/12/11 07:26:21;;;;;;;4.78;1.77;;;12.10;79.90;;;;;;4977751;28;20401;-75
2023/12/11 07:28:46;;;;;;;5.07;1.85;;;12.10;79.90;;;;;;4977585;28;20034;-73
2023/12/11 07:31:12;;;;;;;4.22;1.63;;;12.10;79.90;;;;;;4993595;28;20064;-73
2023/12/11 07:33:38;;;;;;;4.35;1.65;;;12.10;79.90;;;;;;4961207;28;20436;-74
2023/12/11 07:36:04;;;;;;;5.00;1.90;;;12.10;79.90;;;;;;4994911;28;20049;-74
2023/12/11 07:38:31;;;;;;;5.72;1.80;;;12.10;79.90;;;;;;4977327;28;20026;-74
2023/12/11 07:40:57;;;;;;;4.50;1.70;;;12.10;80.00;;;;;;4977326;28;20034;-74
2023/12/11 07:43:23;;;;;;;5.25;1.75;;;12.10;79.90;;;;;;4994118;28;20035;-74
2023/12/11 07:45:49;;;;;;;3.90;1.50;;;12.10;79.90;;;;;;4993371;28;20038;-74
2023/12/11 07:48:15;;;;;;;5.03;1.73;;;12.10;79.90;;;;;;4995167;28;20469;-74
2023/12/11 07:50:41;;;;;;;4.78;1.52;;;12.10;79.90;;;;;;4977028;28;20045;-74
2023/12/11 07:53:07;;;;;;;3.38;1.65;;;12.10;79.90;;;;;;4976810;28;20407;-74
2023/12/11 07:55:35;;;;;;;6.40;2.25;;;12.10;79.90;;;;;;4977768;28;20514;-74
2023/12/11 07:58:01;;;;;;;5.15;1.88;;;12.10;79.90;;;;;;4976892;28;20065;-74
2023/12/11 08:00:26;;;;;;;3.33;1.55;;;12.10;79.90;;;;;;4992612;28;20117;-74
2023/12/11 08:02:52;;;;;;;6.20;1.85;;;12.10;79.90;;;;;;4977426;28;20042;-74
2023/12/11 08:05:18;;;;;;;3.88;1.50;;;12.10;79.90;;;;;;4993914;28;20065;-74
2023/12/11 08:07:44;;;;;;;5.15;1.85;;;12.10;79.90;;;;;;4977596;28;20419;-75
2023/12/11 08:10:10;;;;;;;4.70;1.75;;;12.10;79.90;;;;;;4994159;28;20077;-74
2023/12/11 08:12:35;;;;;;;5.18;2.00;;;12.10;79.90;;;;;;4976666;28;20129;-74
2023/12/11 08:15:03;;;;;;;5.50;1.75;;;12.10;79.90;;;;;;4977388;28;20097;-74
2023/12/11 08:17:29;;;;;;;5.50;1.80;;;12.10;79.90;;;;;;4976653;28;20081;-73
2023/12/11 08:19:55;;;;;;;3.17;1.40;;;12.10;80.00;;;;;;4992929;28;20042;-74
2023/12/11 08:22:21;;;;;;;4.93;1.50;;;12.10;79.90;;;;;;4977239;28;20041;-74
2023/12/11 08:24:47;;;;;;;3.30;1.45;;;12.10;79.90;;;;;;4992708;28;20034;-74
2023/12/11 08:27:13;;;;;;;2.75;1.50;;;12.10;79.90;;;;;;4976458;28;20074;-74
2023/12/11 08:29:39;;;;;;;4.10;1.52;;;12.10;79.90;;;;;;4976587;28;20147;-74
2023/12/11 08:32:05;;;;;;;4.32;1.60;;;12.10;79.90;;;;;;4992504;28;20053;-73
2023/12/11 08:34:31;;;;;;;4.40;1.30;;;12.10;79.90;;;;;;4976227;28;20037;-74
2023/12/11 08:36:57;;;;;;;3.20;1.35;;;12.10;79.90;;;;;;4976203;28;20033;-74
2023/12/11 08:39:23;;;;;;;4.25;1.35;;;12.20;80.00;;;;;;4992291;28;20053;-73
2023/12/11 08:41:49;;;;;;;2.88;1.23;;;12.10;79.90;;;;;;4993407;28;20056;-72
2023/12/11 08:44:16;;;;;;;2.90;1.50;;;12.10;79.90;;;;;;4976300;28;20494;-73
2023/12/11 08:46:43;;;;;;;2.92;1.35;;;12.10;79.90;;;;;;4992269;28;20062;-73
2023/12/11 08:49:10;;;;;;;2.00;1.27;;;12.10;80.00;;;;;;4994303;28;20026;-73
2023/12/11 08:51:36;;;;;;;2.63;1.30;;;12.10;79.90;;;;;;4992523;28;20033;-74
2023/12/11 08:54:02;;;;;;;2.72;1.50;;;12.10;80.00;;;;;;4976331;28;20085;-73
2023/12/11 08:56:28;;;;;;;3.08;1.35;;;12.10;80.00;;;;;;4992783;28;20031;-73
2023/12/11 08:58:53;;;;;;;3.22;1.35;;;12.10;80.00;;;;;;4992220;28;20038;-75
2023/12/11 09:01:19;;;;;;;3.65;1.40;;;12.10;80.00;;;;;;4993720;28;20122;-73
2023/12/11 09:03:45;;;;;;;4.13;1.50;;;12.10;80.00;;;;;;4976018;28;20044;-75
2023/12/11 09:06:13;;;;;;;5.13;1.70;;;12.10;80.00;;;;;;4992623;28;20042;-74
2023/12/11 09:08:39;;;;;;;4.45;1.67;;;12.10;80.60;;;;;;4992576;28;20509;-74
2023/12/11 09:11:05;;;;;;;3.60;1.38;;;12.10;80.60;;;;;;4992075;28;20523;-73
2023/12/11 09:13:31;;;;;;;3.20;1.58;;;12.10;80.00;;;;;;4976272;28;20038;-73
2023/12/11 09:15:57;;;;;;;2.67;1.30;;;12.10;80.00;;;;;;4975787;28;20041;-75
2023/12/11 09:18:23;;;;;;;3.78;1.42;;;12.10;80.00;;;;;;4992112;28;20035;-74
2023/12/11 09:20:49;;;;;;;4.38;1.70;;;12.10;80.00;;;;;;4991966;28;20403;-74
2023/12/11 09:23:15;;;;;;;3.55;1.67;;;12.10;80.00;;;;;;4993008;28;20029;-74
2023/12/11 09:25:41;;;;;;;1.95;1.33;;;12.10;80.00;;;;;;4992440;28;20162;-75
2023/12/11 09:28:07;;;;;;;3.63;1.40;;;12.20;80.60;;;;;;4976140;28;20057;-74
2023/12/11 09:30:32;;;;;;;2.53;1.17;;;12.10;80.00;;;;;;4978382;28;20066;-75
2023/12/11 09:32:58;;;;;;;4.20;1.55;;;12.10;80.00;;;;;;4964210;28;20038;-75
2023/12/11 09:35:24;;;;;;;2.10;1.50;;;12.10;80.00;;;;;;4995570;28;20126;-75
2023/12/11 09:37:50;;;;;;;2.80;1.60;;;12.10;80.00;;;;;;4980038;28;20034;-74
2023/12/11 09:40:16;;;;;;;2.95;1.30;;;12.10;80.00;;;;;;4979404;28;20037;-75
2023/12/11 09:42:43;;;;;;;5.53;2.03;;;12.10;80.00;;;;;;4997104;28;20061;-75
2023/12/11 09:45:11;;;;;;;3.97;1.70;;;12.10;80.00;;;;;;4979823;28;20041;-74
2023/12/11 09:47:46;;;;;;;2.70;1.25;;;12.10;80.00;;;;;;4995592;28;20026;-75
2023/12/11 09:50:13;;;;;;;2.40;1.27;;;12.20;80.10;;;;;;4979296;28;20121;-75
2023/12/11 09:52:43;;;;;;;3.15;1.50;;;12.10;80.00;;;;;;4979442;28;20026;-74
2023/12/11 09:55:09;;;;;;;1.60;1.27;;;12.10;80.00;;;;;;4979436;28;20030;-73
2023/12/11 09:57:40;;;;;;;4.10;1.40;;;12.10;80.00;;;;;;4978970;28;20034;-74
2023/12/11 10:00:08;;;;;;;2.70;1.48;;;12.20;80.10;;;;;;4994908;28;20030;-74
2023/12/11 10:02:35;;;;;;;2.10;1.40;;;12.10;80.00;;;;;;4994911;28;20487;-73
2023/12/11 10:05:05;;;;;;;1.75;1.20;;;12.10;80.00;;;;;;4979803;28;20046;-76
2023/12/11 10:07:34;;;;;;;2.22;1.30;;;12.20;80.10;;;;;;4995172;28;20053;-75
2023/12/11 10:10:25;;;;;;;2.10;1.40;;;12.20;80.10;;;;;;4979008;28;20108;-77
2023/12/11 10:12:51;;;;;;;2.30;1.55;;;12.10;80.10;;;;;;4995208;28;20152;-75
2023/12/11 10:15:22;;;;;;;2.08;1.40;;;12.20;80.10;;;;;;4995046;28;20034;-76
2023/12/11 10:18:06;;;;;;;2.75;1.23;;;12.20;80.10;;;;;;4995199;28;20034;-76
2023/12/11 10:20:33;;;;;;;2.13;1.20;;;12.20;80.10;;;;;;4994600;28;20125;-76
2023/12/11 10:23:09;;;;;;;2.50;1.20;;;12.10;80.00;;;;;;4962812;28;20137;-75
2023/12/11 10:25:36;;;;;;;2.45;1.30;;;12.10;80.00;;;;;;4995251;28;20045;-75
2023/12/11 10:28:07;;;;;;;1.35;1.20;;;12.10;80.00;;;;;;4994647;28;20030;-76
2023/12/11 10:30:35;;;;;;;2.75;1.33;;;12.20;80.10;;;;;;4995293;28;20035;-75
2023/12/11 10:33:02;;;;;;;4.10;1.63;;;12.20;80.10;;;;;;4995679;28;20558;-76
2023/12/11 10:35:28;;;;;;;2.70;1.38;;;12.20;80.10;;;;;;4995975;28;20046;-75
2023/12/11 10:38:01;;;;;;;2.72;1.30;;;12.20;80.70;;;;;;4978599;28;20031;-75
2023/12/11 10:40:41;;;;;;;2.33;1.45;;;12.20;80.10;;;;;;4978986;28;20469;-74
2023/12/11 10:43:07;;;;;;;3.95;1.77;;;12.20;80.10;;;;;;4993668;28;20031;-77
2023/12/11 10:45:33;;;;;;;3.97;1.60;;;12.20;80.00;;;;;;4994269;28;20043;-73
2023/12/11 10:48:00;;;;;;;3.75;1.55;;;12.20;80.00;;;;;;4994363;28;20023;-74
2023/12/11 10:50:26;;;;;;;2.35;1.20;;;12.20;80.10;;;;;;4994553;28;20034;-75
2023/12/11 10:52:53;;;;;;;1.75;1.27;;;12.20;80.00;;;;;;4961936;28;20494;-74
2023/12/11 10:55:19;;;;;;;2.85;1.60;;;12.20;80.00;;;;;;4977941;28;20463;-75
2023/12/11 10:57:46;;;;;;;2.47;1.58;;;12.20;80.00;;;;;;4993962;28;20030;-77
2023/12/11 11:00:14;;;;;;;4.22;1.83;;;12.20;80.10;;;;;;4978529;28;20137;-74
2023/12/11 11:02:44;;;;;;;4.25;1.80;;;12.20;80.80;;;;;;4994859;28;20074;-74
2023/12/11 11:05:11;;;;;;;3.65;1.80;;;12.20;80.20;;;;;;4994026;28;20125;-75
2023/12/11 11:07:50;;;;;;;2.42;1.70;;;12.20;80.20;;;;;;4994578;28;20073;-74
2023/12/11 11:10:23;;;;;;;3.50;1.58;;;12.20;80.20;;;;;;4977980;28;20038;-74
2023/12/11 11:12:55;;;;;;;5.20;1.73;;;12.20;80.00;;;;;;4977723;28;20122;-74
2023/12/11 11:15:22;;;;;;;3.55;1.80;;;12.30;80.00;;;;;;5010230;28;20064;-73
2023/12/11 11:18:05;;;;;;;3.30;1.52;;;12.30;80.00;;;;;;4993706;28;20487;-74
2023/12/11 11:20:33;;;;;;;2.88;1.50;;;12.30;80.00;;;;;;4994778;28;20038;-75
2023/12/11 11:23:18;;;;;;;3.42;1.52;;;12.30;79.90;;;;;;4994952;28;20030;-75
2023/12/11 11:25:51;;;;;;;4.80;1.80;;;12.30;80.00;;;;;;4993613;28;20037;-75
2023/12/11 11:28:50;;;;;;;2.45;1.50;;;12.30;79.90;;;;;;4993732;28;20037;-74
2023/12/11 11:31:16;;;;;;;2.95;1.48;;;12.30;80.00;;;;;;4961369;28;20038;-74
2023/12/11 11:33:46;;;;;;;2.67;1.50;;;12.30;79.80;;;;;;4993490;28;20130;-74
2023/12/11 11:36:19;;;;;;;4.38;1.77;;;12.30;79.90;;;;;;4993886;28;20037;-73
2023/12/11 11:38:57;;;;;;;3.53;1.60;;;12.30;79.90;;;;;;4977207;28;20022;-73
2023/12/11 11:41:27;;;;;;;1.50;1.33;;;12.30;79.90;;;;;;4993626;28;20062;-74
2023/12/11 11:43:57;;;;;;;3.60;1.70;;;12.30;79.90;;;;;;4976992;28;20034;-74
2023/12/11 11:46:23;;;;;;;1.40;1.30;;;12.30;80.50;;;;;;4977775;28;20077;-75
2023/12/11 11:48:49;;;;;;;2.78;1.38;;;12.30;79.90;;;;;;4977387;28;20034;-73
2023/12/11 11:51:17;;;;;;;1.88;1.38;;;12.30;79.90;;;;;;4993165;28;20154;-75
2023/12/11 11:53:44;;;;;;;3.58;1.58;;;12.30;79.90;;;;;;4992988;28;20050;-76
2023/12/11 11:56:11;;;;;;;2.47;1.45;;;12.30;79.80;;;;;;4977211;28;20365;-73
2023/12/11 11:58:37;;;;;;;1.95;1.20;;;12.40;79.90;;;;;;4976768;28;20034;-75
2023/12/11 12:01:06;;;;;;;2.72;1.38;;;12.40;79.90;;;;;;4992817;28;20048;-75
2023/12/11 12:03:42;;;;;;;3.25;1.50;;;12.30;79.80;;;;;;4976834;28;20109;-75
2023/12/11 12:06:09;;;;;;;2.50;1.23;;;12.40;79.80;;;;;;4993234;28;20061;-75
2023/12/11 12:08:36;;;;;;;3.95;1.50;;;12.40;79.70;;;;;;4992977;28;20033;-74
2023/12/11 12:11:05;;;;;;;2.08;1.30;;;12.40;79.80;;;;;;4976697;28;20471;-75
2023/12/11 12:13:36;;;;;;;1.15;1.05;;;12.40;79.80;;;;;;4977190;28;20045;-73
2023/12/11 12:16:02;;;;;;;1.90;1.40;;;12.40;79.80;;;;;;4976967;28;20345;-74
2023/12/11 12:18:28;;;;;;;2.45;1.30;;;12.40;79.70;;;;;;4992736;28;20077;-76
2023/12/11 12:21:04;;;;;;;3.30;1.40;;;12.40;79.70;;;;;;4994472;28;20030;-76
2023/12/11 12:23:30;;;;;;;2.30;1.45;;;12.40;79.70;;;;;;4976424;28;20084;-75
2023/12/11 12:26:00;;;;;;;2.88;1.35;;;12.40;79.70;;;;;;4994056;28;20026;-75
2023/12/11 12:28:27;;;;;;;2.53;1.35;;;12.40;79.70;;;;;;4992381;28;20479;-74
2023/12/11 12:30:53;;;;;;;2.53;1.20;;;12.40;79.60;;;;;;4976708;28;20040;-75
2023/12/11 12:33:19;;;;;;;2.13;1.30;;;12.40;79.70;;;;;;4976657;28;20126;-75
2023/12/11 12:35:45;;;;;;;2.58;1.38;;;12.40;79.60;;;;;;4993603;28;20034;-74
2023/12/11 12:38:13;;;;;;;3.88;1.60;;;12.40;79.60;;;;;;4993223;28;20035;-74
2023/12/11 12:40:39;;;;;;;1.92;1.15;;;12.40;79.60;;;;;;4993586;28;20042;-74
2023/12/11 12:43:12;;;;;;;2.20;1.17;;;12.40;79.60;;;;;;4993045;28;20459;-76
2023/12/11 12:45:39;;;;;;;1.83;1.30;;;12.40;79.70;;;;;;4992581;28;20390;-75